createdAt,value
2018-09-09T00:00:49.537Z,17.90
2018-09-09T00:03:20.020Z,17.90
2018-09-09T00:05:49.730Z,17.90
2018-09-09T00:08:19.088Z,17.90
2018-09-09T00:10:48.596Z,17.90
2018-09-09T00:13:18.109Z,17.90
2018-09-09T00:15:48.333Z,17.80
2018-09-09T00:18:17.608Z,17.80
2018-09-09T00:20:47.280Z,17.80
2018-09-09T00:23:16.866Z,17.60
2018-09-09T00:25:46.504Z,17.50
2018-09-09T00:28:15.967Z,17.40
2018-09-09T00:30:45.796Z,17.40
2018-09-09T00:33:15.445Z,17.50
2018-09-09T00:35:45.274Z,17.50
2018-09-09T00:38:14.586Z,17.50
2018-09-09T00:40:44.078Z,17.50
2018-09-09T00:43:14.104Z,17.50
2018-09-09T00:45:43.868Z,17.60
2018-09-09T00:48:13.484Z,17.70
2018-09-09T00:50:48.136Z,17.70
2018-09-09T00:53:22.762Z,17.70
2018-09-09T00:55:52.506Z,17.70
2018-09-09T00:58:22.059Z,17.80
2018-09-09T01:00:56.948Z,17.80
2018-09-09T01:03:26.589Z,17.80
2018-09-09T01:05:56.176Z,17.70
2018-09-09T01:08:25.454Z,17.80
2018-09-09T01:10:54.780Z,17.80
2018-09-09T01:13:24.260Z,17.70
2018-09-09T01:15:53.651Z,17.70
2018-09-09T01:18:23.010Z,17.60
2018-09-09T01:20:52.439Z,17.70
2018-09-09T01:23:21.893Z,17.80
2018-09-09T01:25:54.697Z,17.80
2018-09-09T01:28:24.502Z,17.90
2018-09-09T01:30:53.864Z,17.80
2018-09-09T01:33:23.075Z,17.90
2018-09-09T01:35:52.562Z,17.70
2018-09-09T01:38:21.878Z,17.70
2018-09-09T01:40:51.374Z,17.60
2018-09-09T01:43:21.010Z,17.40
2018-09-09T01:45:50.831Z,17.40
2018-09-09T01:48:20.413Z,17.50
2018-09-09T01:50:49.915Z,17.40
2018-09-09T01:53:19.118Z,17.40
2018-09-09T01:55:48.505Z,17.40
2018-09-09T01:58:18.026Z,17.30
2018-09-09T02:00:47.808Z,17.40
2018-09-09T02:03:17.221Z,17.40
2018-09-09T02:05:47.151Z,17.30
2018-09-09T02:08:16.510Z,17.30
2018-09-09T02:10:45.904Z,17.30
2018-09-09T02:13:15.594Z,17.30
2018-09-09T02:15:45.514Z,17.20
2018-09-09T02:18:14.923Z,17.30
2018-09-09T02:20:44.383Z,17.30
2018-09-09T02:23:13.912Z,17.30
2018-09-09T02:25:43.587Z,17.30
2018-09-09T02:28:13.031Z,17.40
2018-09-09T02:30:43.081Z,17.40
2018-09-09T02:33:12.757Z,17.40
2018-09-09T02:35:42.542Z,17.50
2018-09-09T02:38:11.876Z,17.50
2018-09-09T02:40:41.382Z,17.30
2018-09-09T02:43:11.528Z,17.30
2018-09-09T02:45:41.092Z,17.20
2018-09-09T02:48:10.566Z,17.20
2018-09-09T02:50:39.947Z,17.20
2018-09-09T02:53:09.513Z,17.20
2018-09-09T02:55:45.945Z,17.20
2018-09-09T02:58:16.908Z,17.20
2018-09-09T03:00:46.842Z,17.20
2018-09-09T03:03:16.202Z,17.10
2018-09-09T03:05:45.588Z,17.10
2018-09-09T03:08:14.848Z,17.10
2018-09-09T03:10:44.425Z,17.00
2018-09-09T03:13:13.981Z,17.10
2018-09-09T03:15:43.747Z,17.10
2018-09-09T03:18:13.332Z,17.10
2018-09-09T03:20:42.734Z,17.10
2018-09-09T03:23:12.040Z,16.90
2018-09-09T03:25:41.194Z,17.00
2018-09-09T03:28:10.962Z,17.10
2018-09-09T03:30:40.512Z,17.10
2018-09-09T03:33:09.844Z,17.00
2018-09-09T03:35:39.106Z,17.00
2018-09-09T03:38:08.734Z,16.90
2018-09-09T03:40:38.086Z,16.80
2018-09-09T03:43:07.330Z,16.80
2018-09-09T03:45:36.582Z,16.80
2018-09-09T03:48:06.127Z,16.80
2018-09-09T03:50:35.662Z,16.80
2018-09-09T03:53:05.264Z,16.70
2018-09-09T03:55:34.971Z,16.70
2018-09-09T03:58:04.403Z,16.70
2018-09-09T04:00:33.756Z,16.60
2018-09-09T04:03:03.392Z,16.70
2018-09-09T04:05:32.676Z,16.60
2018-09-09T04:08:01.900Z,16.60
2018-09-09T04:10:31.200Z,16.60
2018-09-09T04:13:00.516Z,16.60
2018-09-09T04:15:29.765Z,16.50
2018-09-09T04:17:58.963Z,16.50
2018-09-09T04:20:28.366Z,16.50
2018-09-09T04:22:57.579Z,16.50
2018-09-09T04:25:26.845Z,16.30
2018-09-09T04:27:56.090Z,16.30
2018-09-09T04:30:25.196Z,16.20
2018-09-09T04:32:54.392Z,16.10
2018-09-09T04:35:23.507Z,16.10
2018-09-09T04:37:52.679Z,16.10
2018-09-09T04:40:22.021Z,16.00
2018-09-09T04:42:51.954Z,16.00
2018-09-09T04:45:21.148Z,15.90
2018-09-09T04:47:50.971Z,15.80
2018-09-09T04:50:20.573Z,15.80
2018-09-09T04:52:50.257Z,15.60
2018-09-09T04:55:20.089Z,15.70
2018-09-09T04:57:49.907Z,15.60
2018-09-09T05:00:19.877Z,15.70
2018-09-09T05:02:49.549Z,15.60
2018-09-09T05:05:19.486Z,15.60
2018-09-09T05:07:49.439Z,15.50
2018-09-09T05:10:19.475Z,15.50
2018-09-09T05:12:49.890Z,15.50
2018-09-09T05:15:20.085Z,15.50
2018-09-09T05:17:50.301Z,15.50
2018-09-09T05:20:20.557Z,15.50
2018-09-09T05:22:50.462Z,15.50
2018-09-09T05:25:21.151Z,15.50
2018-09-09T05:27:51.327Z,15.50
2018-09-09T05:30:22.153Z,15.50
2018-09-09T05:32:52.913Z,15.70
2018-09-09T05:35:22.667Z,15.70
2018-09-09T05:37:52.321Z,15.70
2018-09-09T05:40:21.890Z,15.80
2018-09-09T05:42:51.865Z,15.80
2018-09-09T05:45:21.653Z,15.70
2018-09-09T05:47:52.305Z,15.70
2018-09-09T05:50:22.407Z,15.70
2018-09-09T05:52:52.237Z,15.70
2018-09-09T05:55:22.025Z,15.70
2018-09-09T05:57:52.561Z,15.70
2018-09-09T06:00:23.121Z,15.70
2018-09-09T06:02:53.351Z,15.80
2018-09-09T06:05:24.171Z,15.80
2018-09-09T06:07:55.301Z,15.80
2018-09-09T06:10:25.506Z,15.80
2018-09-09T06:12:55.430Z,15.90
2018-09-09T06:15:25.535Z,15.90
2018-09-09T06:17:55.379Z,16.00
2018-09-09T06:20:25.097Z,16.10
2018-09-09T06:22:55.376Z,16.10
2018-09-09T06:25:25.293Z,16.00
2018-09-09T06:27:55.523Z,16.30
2018-09-09T06:30:25.313Z,16.20
2018-09-09T06:32:55.235Z,16.50
2018-09-09T06:35:25.575Z,16.70
2018-09-09T06:37:55.543Z,16.80
2018-09-09T06:40:25.659Z,16.90
2018-09-09T06:42:55.392Z,16.90
2018-09-09T06:45:25.478Z,17.10
2018-09-09T06:47:56.225Z,17.10
2018-09-09T06:50:26.383Z,17.00
2018-09-09T06:52:56.349Z,17.20
2018-09-09T06:55:26.326Z,17.10
2018-09-09T06:57:56.747Z,17.50
2018-09-09T07:00:27.127Z,17.60
2018-09-09T07:02:58.009Z,17.60
2018-09-09T07:05:28.429Z,17.60
2018-09-09T07:07:59.291Z,17.80
2018-09-09T07:10:30.371Z,17.90
2018-09-09T07:13:00.481Z,17.90
2018-09-09T07:15:30.599Z,18.00
2018-09-09T07:18:00.541Z,18.10
2018-09-09T07:20:31.025Z,18.20
2018-09-09T07:23:01.412Z,18.30
2018-09-09T07:25:31.383Z,18.30
2018-09-09T07:28:01.417Z,18.30
2018-09-09T07:30:31.736Z,18.40
2018-09-09T07:33:02.608Z,18.50
2018-09-09T07:35:34.211Z,18.50
2018-09-09T07:38:04.636Z,18.70
2018-09-09T07:40:34.488Z,18.80
2018-09-09T07:43:04.638Z,19.00
2018-09-09T07:45:34.634Z,19.10
2018-09-09T07:48:04.634Z,19.30
2018-09-09T07:50:34.588Z,19.10
2018-09-09T07:53:04.497Z,19.30
2018-09-09T07:55:34.322Z,19.30
2018-09-09T07:58:04.092Z,19.40
2018-09-09T08:00:34.045Z,19.60
2018-09-09T08:03:03.979Z,19.80
2018-09-09T08:05:34.160Z,19.70
2018-09-09T08:08:04.328Z,19.50
2018-09-09T08:10:34.382Z,19.70
2018-09-09T08:13:04.244Z,19.70
2018-09-09T08:15:34.122Z,20.10
2018-09-09T08:18:04.608Z,20.10
2018-09-09T08:20:34.507Z,20.20
2018-09-09T08:23:05.144Z,20.30
2018-09-09T08:25:35.636Z,20.40
2018-09-09T08:28:05.604Z,20.40
2018-09-09T08:30:35.368Z,20.50
2018-09-09T08:33:05.226Z,20.50
2018-09-09T08:35:35.360Z,20.70
2018-09-09T08:38:05.396Z,20.90
2018-09-09T08:40:35.926Z,21.00
2018-09-09T08:43:06.068Z,20.90
2018-09-09T08:45:36.726Z,21.30
2018-09-09T08:48:08.042Z,21.40
2018-09-09T08:50:38.330Z,21.50
2018-09-09T08:53:08.383Z,21.50
2018-09-09T08:55:38.562Z,21.40
2018-09-09T08:58:09.322Z,21.80
2018-09-09T09:00:39.704Z,21.90
2018-09-09T09:03:09.865Z,21.90
2018-09-09T09:05:39.784Z,22.00
2018-09-09T09:08:09.683Z,22.00
2018-09-09T09:10:39.882Z,22.10
2018-09-09T09:13:10.150Z,22.00
2018-09-09T09:15:39.736Z,22.00
2018-09-09T09:18:09.426Z,22.20
2018-09-09T09:20:39.662Z,22.50
2018-09-09T09:23:09.178Z,22.30
2018-09-09T09:25:43.341Z,22.30
2018-09-09T09:28:12.994Z,22.10
2018-09-09T09:30:43.633Z,22.40
2018-09-09T09:33:14.272Z,22.50
2018-09-09T09:35:51.548Z,22.80
2018-09-09T09:38:22.404Z,22.80
2018-09-09T09:40:52.359Z,22.60
2018-09-09T09:43:22.094Z,22.70
2018-09-09T09:45:52.433Z,22.90
2018-09-09T09:48:22.388Z,22.90
2018-09-09T09:50:52.798Z,22.70
2018-09-09T09:53:22.821Z,22.60
2018-09-09T09:55:52.334Z,22.50
2018-09-09T09:58:22.193Z,22.60
2018-09-09T10:00:56.944Z,22.60
2018-09-09T10:03:26.869Z,22.60
2018-09-09T10:05:56.684Z,23.00
2018-09-09T10:08:26.604Z,23.30
2018-09-09T10:10:56.881Z,23.60
2018-09-09T10:13:27.128Z,23.60
2018-09-09T10:15:56.927Z,23.50
2018-09-09T10:18:27.267Z,23.70
2018-09-09T10:20:56.924Z,23.20
2018-09-09T10:23:27.270Z,23.40
2018-09-09T10:25:57.312Z,23.50
2018-09-09T10:28:27.480Z,23.90
2018-09-09T10:30:57.865Z,23.80
2018-09-09T10:33:28.119Z,24.00
2018-09-09T10:35:58.391Z,24.10
2018-09-09T10:38:28.291Z,24.30
2018-09-09T10:40:58.992Z,24.50
2018-09-09T10:43:29.071Z,24.60
2018-09-09T10:45:59.228Z,24.60
2018-09-09T10:48:29.249Z,24.60
2018-09-09T10:50:59.165Z,24.40
2018-09-09T10:53:29.197Z,24.30
2018-09-09T10:56:00.208Z,24.40
2018-09-09T10:58:32.353Z,24.50
2018-09-09T11:01:02.500Z,24.30
2018-09-09T11:03:32.870Z,24.40
2018-09-09T11:06:03.107Z,24.30
2018-09-09T11:08:33.217Z,24.40
2018-09-09T11:11:03.842Z,24.50
2018-09-09T11:13:33.988Z,24.60
2018-09-09T11:16:04.465Z,24.70
2018-09-09T11:18:34.470Z,25.00
2018-09-09T11:21:04.683Z,25.20
2018-09-09T11:23:34.251Z,25.30
2018-09-09T11:26:04.134Z,25.20
2018-09-09T11:28:34.889Z,25.40
2018-09-09T11:31:05.429Z,25.20
2018-09-09T11:33:35.727Z,25.10
2018-09-09T11:36:05.798Z,25.40
2018-09-09T11:38:35.795Z,25.30
2018-09-09T11:41:05.730Z,25.40
2018-09-09T11:43:36.097Z,25.60
2018-09-09T11:46:06.523Z,25.40
2018-09-09T11:48:36.985Z,25.40
2018-09-09T11:51:07.095Z,25.50
2018-09-09T11:53:37.450Z,25.50
2018-09-09T11:56:07.193Z,25.40
2018-09-09T11:58:36.887Z,25.60
2018-09-09T12:01:06.965Z,25.30
2018-09-09T12:03:37.477Z,25.10
2018-09-09T12:06:07.376Z,25.20
2018-09-09T12:08:37.285Z,25.20
2018-09-09T12:11:08.131Z,25.10
2018-09-09T12:13:38.316Z,25.20
2018-09-09T12:16:09.336Z,25.30
2018-09-09T12:18:39.544Z,25.20
2018-09-09T12:21:09.781Z,25.30
2018-09-09T12:23:40.480Z,25.30
2018-09-09T12:26:10.656Z,25.50
2018-09-09T12:28:40.997Z,25.80
2018-09-09T12:31:11.010Z,25.80
2018-09-09T12:33:41.005Z,25.90
2018-09-09T12:36:11.453Z,26.00
2018-09-09T12:38:41.361Z,26.00
2018-09-09T12:41:11.409Z,25.90
2018-09-09T12:43:47.551Z,25.90
2018-09-09T12:46:22.380Z,25.30
2018-09-09T12:48:58.258Z,25.30
2018-09-09T12:51:27.929Z,25.20
2018-09-09T12:53:57.842Z,25.10
2018-09-09T12:56:27.967Z,25.10
2018-09-09T12:58:59.149Z,25.10
2018-09-09T13:01:29.767Z,25.10
2018-09-09T13:04:02.359Z,25.20
2018-09-09T13:06:33.141Z,25.40
2018-09-09T13:09:03.435Z,25.50
2018-09-09T13:11:33.768Z,25.20
2018-09-09T13:14:03.962Z,25.40
2018-09-09T13:16:34.489Z,25.40
2018-09-09T13:19:04.716Z,25.60
2018-09-09T13:21:34.925Z,25.90
2018-09-09T13:24:04.428Z,26.00
2018-09-09T13:26:34.245Z,26.10
2018-09-09T13:29:05.216Z,26.20
2018-09-09T13:31:35.343Z,26.30
2018-09-09T13:34:05.057Z,26.10
2018-09-09T13:36:35.225Z,26.30
2018-09-09T13:39:06.225Z,26.40
2018-09-09T13:41:36.227Z,26.40
2018-09-09T13:44:06.805Z,26.20
2018-09-09T13:46:36.853Z,25.90
2018-09-09T13:49:07.147Z,26.20
2018-09-09T13:51:38.191Z,26.30
2018-09-09T13:54:08.284Z,26.40
2018-09-09T13:56:38.279Z,26.20
2018-09-09T13:59:09.176Z,25.70
2018-09-09T14:01:39.290Z,26.00
2018-09-09T14:04:09.324Z,26.00
2018-09-09T14:06:39.439Z,26.10
2018-09-09T14:09:09.858Z,26.00
2018-09-09T14:11:39.670Z,25.90
2018-09-09T14:14:10.594Z,25.80
2018-09-09T14:16:40.417Z,26.00
2018-09-09T14:19:10.592Z,26.00
2018-09-09T14:21:41.495Z,25.90
2018-09-09T14:24:11.316Z,25.90
2018-09-09T14:26:41.431Z,26.00
2018-09-09T14:29:12.095Z,25.90
2018-09-09T14:31:43.184Z,25.70
2018-09-09T14:34:13.246Z,25.70
2018-09-09T14:36:43.496Z,25.70
2018-09-09T14:39:14.234Z,25.70
2018-09-09T14:41:44.365Z,25.60
2018-09-09T14:44:15.045Z,25.60
2018-09-09T14:46:45.005Z,25.60
2018-09-09T14:49:15.529Z,25.30
2018-09-09T14:51:46.373Z,25.30
2018-09-09T14:54:17.067Z,25.40
2018-09-09T14:56:47.435Z,25.50
2018-09-09T14:59:18.175Z,25.40
2018-09-09T15:01:48.737Z,25.40
2018-09-09T15:04:19.210Z,25.40
2018-09-09T15:06:49.579Z,25.30
2018-09-09T15:09:19.351Z,25.30
2018-09-09T15:11:50.703Z,25.50
2018-09-09T15:14:21.030Z,25.70
2018-09-09T15:16:51.537Z,25.80
2018-09-09T15:19:22.381Z,26.00
2018-09-09T15:21:52.086Z,25.60
2018-09-09T15:24:22.509Z,25.80
2018-09-09T15:26:52.559Z,26.00
2018-09-09T15:29:22.611Z,25.90
2018-09-09T15:31:52.911Z,26.10
2018-09-09T15:34:23.153Z,26.10
2018-09-09T15:36:53.163Z,26.10
2018-09-09T15:39:24.059Z,26.10
2018-09-09T15:41:54.241Z,26.20
2018-09-09T15:44:24.277Z,26.30
2018-09-09T15:46:54.845Z,26.20
2018-09-09T15:49:25.313Z,26.30
2018-09-09T15:51:55.745Z,26.30
2018-09-09T15:54:27.061Z,26.40
2018-09-09T15:56:58.127Z,26.50
2018-09-09T15:59:29.759Z,26.60
2018-09-09T16:02:02.133Z,26.60
2018-09-09T16:04:33.198Z,26.50
2018-09-09T16:07:04.492Z,26.30
2018-09-09T16:09:35.760Z,26.10
2018-09-09T16:12:06.435Z,26.10
2018-09-09T16:14:37.289Z,26.10
2018-09-09T16:17:08.732Z,26.10
2018-09-09T16:19:39.692Z,26.00
2018-09-09T16:22:11.016Z,26.00
2018-09-09T16:24:41.698Z,26.00
2018-09-09T16:27:12.230Z,25.90
2018-09-09T16:29:42.811Z,25.90
2018-09-09T16:32:13.242Z,26.00
2018-09-09T16:34:43.798Z,25.90
2018-09-09T16:37:14.675Z,26.10
2018-09-09T16:39:44.917Z,26.00
2018-09-09T16:42:16.622Z,26.10
2018-09-09T16:44:48.078Z,26.20
2018-09-09T16:47:19.091Z,26.00
2018-09-09T16:49:49.906Z,26.00
2018-09-09T16:52:21.370Z,26.00
2018-09-09T16:54:51.769Z,26.00
2018-09-09T16:57:23.152Z,26.10
2018-09-09T16:59:53.338Z,26.00
2018-09-09T17:02:24.320Z,26.10
2018-09-09T17:04:56.160Z,26.10
2018-09-09T17:07:26.882Z,26.10
2018-09-09T17:09:58.280Z,26.10
2018-09-09T17:12:29.539Z,26.10
2018-09-09T17:15:00.324Z,26.00
2018-09-09T17:17:30.650Z,25.80
2018-09-09T17:20:01.419Z,25.70
2018-09-09T17:22:31.994Z,25.60
2018-09-09T17:25:02.826Z,25.60
2018-09-09T17:27:32.382Z,25.40
2018-09-09T17:30:03.033Z,25.50
2018-09-09T17:32:33.175Z,25.50
2018-09-09T17:35:03.842Z,25.40
2018-09-09T17:37:34.178Z,25.40
2018-09-09T17:40:04.117Z,25.10
2018-09-09T17:42:34.184Z,24.90
2018-09-09T17:45:04.517Z,24.60
2018-09-09T17:47:34.820Z,24.60
2018-09-09T17:50:04.598Z,24.50
2018-09-09T17:52:34.547Z,24.30
2018-09-09T17:55:04.421Z,24.20
2018-09-09T17:57:33.877Z,24.10
2018-09-09T18:00:03.677Z,24.00
2018-09-09T18:02:33.078Z,23.90
2018-09-09T18:05:02.684Z,23.80
2018-09-09T18:07:32.171Z,23.80
2018-09-09T18:10:02.062Z,23.60
2018-09-09T18:12:31.495Z,23.60
2018-09-09T18:15:01.161Z,23.60
2018-09-09T18:17:30.540Z,23.60
2018-09-09T18:19:59.873Z,23.60
2018-09-09T18:22:29.730Z,23.50
2018-09-09T18:24:59.456Z,23.40
2018-09-09T18:27:29.216Z,23.30
2018-09-09T18:30:01.978Z,23.20
2018-09-09T18:32:32.032Z,23.10
2018-09-09T18:35:01.692Z,23.10
2018-09-09T18:37:31.557Z,22.90
2018-09-09T18:40:01.545Z,22.70
2018-09-09T18:42:31.429Z,22.70
2018-09-09T18:45:02.355Z,22.60
2018-09-09T18:47:32.976Z,22.40
2018-09-09T18:50:03.720Z,22.50
2018-09-09T18:52:34.169Z,22.40
2018-09-09T18:55:05.462Z,22.30
2018-09-09T18:57:35.607Z,22.20
2018-09-09T19:00:05.604Z,22.10
2018-09-09T19:02:36.526Z,22.00
2018-09-09T19:05:06.925Z,22.00
2018-09-09T19:07:36.466Z,22.00
2018-09-09T19:10:06.637Z,21.80
2018-09-09T19:12:36.385Z,21.70
2018-09-09T19:15:06.446Z,21.70
2018-09-09T19:17:36.641Z,21.60
2018-09-09T19:20:06.289Z,21.60
2018-09-09T19:22:36.037Z,21.50
2018-09-09T19:25:05.977Z,21.50
2018-09-09T19:27:35.700Z,21.40
2018-09-09T19:30:05.969Z,21.40
2018-09-09T19:32:36.141Z,21.40
2018-09-09T19:35:06.113Z,21.30
2018-09-09T19:37:36.669Z,21.20
2018-09-09T19:40:06.684Z,21.20
2018-09-09T19:42:38.005Z,21.20
2018-09-09T19:45:08.157Z,21.10
2018-09-09T19:47:38.605Z,21.00
2018-09-09T19:50:08.351Z,21.10
2018-09-09T19:52:38.545Z,21.00
2018-09-09T19:55:08.149Z,21.10
2018-09-09T19:57:38.151Z,21.00
2018-09-09T20:00:07.965Z,21.00
2018-09-09T20:02:37.203Z,20.90
2018-09-09T20:05:07.349Z,20.80
2018-09-09T20:07:36.532Z,20.80
2018-09-09T20:10:06.271Z,20.70
2018-09-09T20:12:36.225Z,20.80
2018-09-09T20:15:06.250Z,20.80
2018-09-09T20:17:36.099Z,20.60
2018-09-09T20:20:06.003Z,20.40
2018-09-09T20:22:36.166Z,20.30
2018-09-09T20:25:06.059Z,20.20
2018-09-09T20:27:35.972Z,20.10
2018-09-09T20:30:05.802Z,20.10
2018-09-09T20:32:36.208Z,19.90
2018-09-09T20:35:05.931Z,20.00
2018-09-09T20:37:35.637Z,20.00
2018-09-09T20:40:05.415Z,20.00
2018-09-09T20:42:35.650Z,20.00
2018-09-09T20:45:05.971Z,20.00
2018-09-09T20:47:35.984Z,20.00
2018-09-09T20:50:06.338Z,19.90
2018-09-09T20:52:36.719Z,19.90
2018-09-09T20:55:06.563Z,19.80
2018-09-09T20:57:36.477Z,19.90
2018-09-09T21:00:06.315Z,19.90
2018-09-09T21:02:36.397Z,19.80
2018-09-09T21:05:06.867Z,19.70
2018-09-09T21:07:36.897Z,19.70
2018-09-09T21:10:06.876Z,19.80
2018-09-09T21:12:37.019Z,19.80
2018-09-09T21:15:07.369Z,19.80
2018-09-09T21:17:37.216Z,19.80
2018-09-09T21:20:07.383Z,19.70
2018-09-09T21:22:37.179Z,19.60
2018-09-09T21:25:07.766Z,19.60
2018-09-09T21:27:37.704Z,19.50
2018-09-09T21:30:07.561Z,19.60
2018-09-09T21:32:37.912Z,19.40
2018-09-09T21:35:07.939Z,19.50
2018-09-09T21:37:38.091Z,19.50
2018-09-09T21:40:07.975Z,19.40
2018-09-09T21:42:38.230Z,19.40
2018-09-09T21:45:08.543Z,19.50
2018-09-09T21:47:37.925Z,19.30
2018-09-09T21:50:07.603Z,19.40
2018-09-09T21:52:37.725Z,19.40
2018-09-09T21:55:07.562Z,19.30
2018-09-09T21:57:37.603Z,19.20
2018-09-09T22:00:09.777Z,19.20
2018-09-09T22:02:41.295Z,19.00
2018-09-09T22:05:11.755Z,18.90
2018-09-09T22:07:41.342Z,19.00
2018-09-09T22:10:11.036Z,18.90
2018-09-09T22:12:40.793Z,18.90
2018-09-09T22:15:10.567Z,18.80
2018-09-09T22:17:41.529Z,18.80
2018-09-09T22:20:11.303Z,18.70
2018-09-09T22:22:42.258Z,18.70
2018-09-09T22:25:11.707Z,18.70
2018-09-09T22:27:41.342Z,18.60
2018-09-09T22:30:11.161Z,18.50
2018-09-09T22:32:41.051Z,18.50
2018-09-09T22:35:10.601Z,18.40
2018-09-09T22:37:40.642Z,18.40
2018-09-09T22:40:10.618Z,18.40
2018-09-09T22:42:40.320Z,18.50
2018-09-09T22:45:10.339Z,18.50
2018-09-09T22:47:39.933Z,18.50
2018-09-09T22:50:09.695Z,18.40
2018-09-09T22:52:39.709Z,18.40
2018-09-09T22:55:09.455Z,18.50
2018-09-09T22:57:39.264Z,18.50
2018-09-09T23:00:09.107Z,18.40
2018-09-09T23:02:39.115Z,18.50
2018-09-09T23:05:09.027Z,18.50
2018-09-09T23:07:38.886Z,18.60
2018-09-09T23:10:08.583Z,18.50
2018-09-09T23:12:37.961Z,18.50
2018-09-09T23:15:07.767Z,18.50
2018-09-09T23:17:37.091Z,18.50
2018-09-09T23:20:06.641Z,18.40
2018-09-09T23:22:36.651Z,18.40
2018-09-09T23:25:06.484Z,18.40
2018-09-09T23:27:36.252Z,18.30
2018-09-09T23:30:05.910Z,18.30
2018-09-09T23:32:35.531Z,18.30
2018-09-09T23:35:04.945Z,18.10
2018-09-09T23:37:34.825Z,18.10
2018-09-09T23:40:04.393Z,18.00
2018-09-09T23:42:34.725Z,17.90
2018-09-09T23:45:04.421Z,17.90
2018-09-09T23:47:34.204Z,17.80
2018-09-09T23:50:04.018Z,17.70
2018-09-09T23:52:34.275Z,17.80
2018-09-09T23:55:04.193Z,17.70
2018-09-09T23:57:33.968Z,17.80
